Time;durP1;ratioP1;P1;durP2;ratioP2;P2;SDS_P1;SDS_P2;PMS_P1;PMS_P2;Temp;Humidity;BMP_temperature;BMP_pressure;BME280_temperature;BME280_humidity;BME280_pressure;Samples;Min_cycle;Max_cycle;Signal;HPM_P1;HPM_P2
2022/03/14 10:11:17;;;;;;;12.80;12.30;;;21.30;63.90;;;;;;5069502;27;20571;-74
2022/03/14 10:13:44;;;;;;;12.13;11.63;;;24.20;53.10;;;;;;5069603;28;20443;-74
2022/03/14 10:16:10;;;;;;;13.10;12.03;;;23.70;51.10;;;;;;5069501;28;20443;-74
2022/03/14 10:18:52;;;;;;;12.40;11.67;;;23.60;51.50;;;;;;5069489;28;20456;-74
2022/03/14 10:21:30;;;;;;;11.70;11.20;;;21.20;51.40;;;;;;5069609;28;20486;-74
2022/03/14 10:24:00;;;;;;;11.67;11.20;;;20.50;54.90;;;;;;5069517;28;20844;-74
2022/03/14 10:26:29;;;;;;;12.27;11.63;;;20.10;56.10;;;;;;5069234;28;20455;-74
2022/03/14 10:28:57;;;;;;;11.53;10.80;;;20.20;56.40;;;;;;5069214;28;20583;-74
2022/03/14 10:31:33;;;;;;;12.00;11.50;;;21.50;55.10;;;;;;5069249;28;20470;-74
2022/03/14 10:34:04;;;;;;;11.87;11.10;;;22.50;53.20;;;;;;5069344;28;20787;-75
2022/03/14 10:36:48;;;;;;;12.70;11.50;;;22.80;51.80;;;;;;5069225;28;20447;-74
2022/03/14 10:39:20;;;;;;;12.50;11.80;;;23.20;50.30;;;;;;5069089;28;20452;-73
2022/03/14 10:42:02;;;;;;;13.10;12.20;;;22.90;50.50;;;;;;5069151;28;20452;-74
2022/03/14 10:44:29;;;;;;;12.30;11.70;;;23.40;51.20;;;;;;5069029;28;20452;-73
2022/03/14 10:46:58;;;;;;;12.50;11.90;;;24.70;48.30;;;;;;5068968;28;20448;-74
2022/03/14 10:49:27;;;;;;;12.10;11.60;;;24.40;47.70;;;;;;5068770;28;20491;-73
2022/03/14 10:51:56;;;;;;;11.40;10.90;;;22.80;47.30;;;;;;5068864;28;20454;-75
2022/03/14 10:54:23;;;;;;;11.47;10.80;;;21.40;50.50;;;;;;5068945;28;20829;-75
2022/03/14 10:57:08;;;;;;;12.40;11.60;;;20.80;51.20;;;;;;5068889;28;20491;-75
2022/03/14 10:59:40;;;;;;;11.60;11.10;;;20.00;53.90;;;;;;5068827;28;20444;-75
2022/03/14 11:02:08;;;;;;;12.27;11.60;;;19.10;54.60;;;;;;5068697;28;20467;-76
2022/03/14 11:04:47;;;;;;;12.00;11.40;;;19.10;54.90;;;;;;5068677;28;20451;-75
2022/03/14 11:07:14;;;;;;;11.53;10.80;;;19.90;52.40;;;;;;5068576;28;20796;-75
2022/03/14 11:09:43;;;;;;;11.03;10.63;;;20.20;52.20;;;;;;5068168;28;20535;-74
2022/03/14 11:12:13;;;;;;;10.60;10.20;;;19.10;52.00;;;;;;5055468;28;20450;-75
2022/03/14 11:14:40;;;;;;;11.27;10.70;;;17.90;53.50;;;;;;5055271;28;20961;-74
2022/03/14 11:17:19;;;;;;;11.40;10.80;;;18.60;53.50;;;;;;5055165;28;20460;-74
2022/03/14 11:19:46;;;;;;;11.23;10.60;;;19.10;52.00;;;;;;5055127;28;20942;-74
2022/03/14 11:22:15;;;;;;;11.47;10.87;;;18.30;52.90;;;;;;5055234;28;20460;-75
2022/03/14 11:24:43;;;;;;;11.10;10.53;;;18.40;53.80;;;;;;5055053;28;20453;-75
2022/03/14 11:27:18;;;;;;;11.13;10.63;;;19.80;52.50;;;;;;5055065;28;20448;-74
2022/03/14 11:29:46;;;;;;;11.60;11.00;;;20.80;51.50;;;;;;5054863;28;21012;-75
2022/03/14 11:32:15;;;;;;;12.00;11.00;;;21.10;49.40;;;;;;5054926;28;20459;-74
2022/03/14 11:34:42;;;;;;;11.23;10.63;;;21.30;50.10;;;;;;5054885;28;20456;-74
2022/03/14 11:37:10;;;;;;;12.47;11.87;;;21.30;49.60;;;;;;5055041;28;20455;-74
2022/03/14 11:39:37;;;;;;;12.13;11.53;;;22.00;49.10;;;;;;5054833;28;20803;-75
2022/03/14 11:42:05;;;;;;;11.93;11.13;;;22.60;48.30;;;;;;5054672;28;20970;-75
2022/03/14 11:44:34;;;;;;;11.83;11.33;;;22.90;47.00;;;;;;5054587;28;20978;-75
2022/03/14 11:47:01;;;;;;;12.43;11.87;;;23.20;47.30;;;;;;5054691;28;20460;-74
2022/03/14 11:49:30;;;;;;;12.40;11.70;;;23.30;46.30;;;;;;5054539;28;20480;-75
2022/03/14 11:52:07;;;;;;;11.67;11.17;;;23.40;45.80;;;;;;5054497;28;20617;-75
2022/03/14 11:54:37;;;;;;;11.70;11.27;;;21.90;45.20;;;;;;5054573;28;20460;-74
2022/03/14 11:57:05;;;;;;;12.17;11.67;;;21.10;47.60;;;;;;5054523;28;20488;-73
2022/03/14 11:59:35;;;;;;;12.90;12.20;;;21.30;47.80;;;;;;5054422;28;20951;-75
2022/03/14 12:02:05;;;;;;;11.90;11.30;;;21.90;47.20;;;;;;5054418;28;20997;-74
2022/03/14 12:04:33;;;;;;;12.80;12.00;;;22.70;46.70;;;;;;5054434;28;20448;-74
2022/03/14 12:07:11;;;;;;;12.20;11.20;;;22.90;45.50;;;;;;5054391;28;20452;-73
2022/03/14 12:09:51;;;;;;;12.83;12.23;;;22.80;46.50;;;;;;5054106;28;20511;-73
2022/03/14 12:12:29;;;;;;;12.73;12.07;;;22.90;46.70;;;;;;5054276;28;20453;-74
2022/03/14 12:14:59;;;;;;;11.83;11.33;;;23.60;45.50;;;;;;5054281;28;20456;-75
2022/03/14 12:17:27;;;;;;;11.90;11.20;;;23.50;45.00;;;;;;5054140;28;20452;-74
2022/03/14 12:19:57;;;;;;;10.97;10.47;;;22.60;45.30;;;;;;5054132;28;20532;-73
2022/03/14 12:22:48;;;;;;;11.57;10.87;;;22.50;46.60;;;;;;5053111;28;20460;-74
2022/03/14 12:25:44;;;;;;;11.70;11.20;;;23.10;45.30;;;;;;5038874;28;20452;-73
2022/03/14 12:28:31;;;;;;;12.20;11.60;;;23.80;44.90;;;;;;5054035;28;20444;-76
2022/03/14 12:31:11;;;;;;;11.37;10.97;;;23.20;44.20;;;;;;5053756;28;20491;-74
2022/03/14 12:33:39;;;;;;;11.93;11.43;;;22.20;46.30;;;;;;5053871;28;20493;-74
2022/03/14 12:36:40;;;;;;;11.63;11.07;;;22.30;45.90;;;;;;5053769;28;20452;-74
2022/03/14 12:39:26;;;;;;;12.60;12.00;;;23.40;45.20;;;;;;5053743;28;20854;-75
2022/03/14 12:41:53;;;;;;;12.10;11.50;;;24.30;43.80;;;;;;5053544;28;20463;-75
2022/03/14 12:44:21;;;;;;;12.20;11.63;;;25.30;42.70;;;;;;5053218;28;20445;-74
2022/03/14 12:46:51;;;;;;;12.50;11.90;;;25.10;42.00;;;;;;5053375;28;20453;-74
2022/03/14 12:49:25;;;;;;;11.87;11.37;;;25.30;41.00;;;;;;5053271;28;20460;-74
2022/03/14 12:52:14;;;;;;;11.63;11.13;;;24.50;41.80;;;;;;5053428;28;20971;-74
2022/03/14 12:54:41;;;;;;;11.63;11.13;;;23.90;42.10;;;;;;5048601;28;20460;-74
2022/03/14 12:57:08;;;;;;;11.57;11.07;;;24.30;42.40;;;;;;5053242;28;20449;-75
2022/03/14 12:59:41;;;;;;;11.97;11.30;;;24.70;41.40;;;;;;5053140;28;20444;-74
2022/03/14 13:02:14;;;;;;;10.97;10.43;;;23.70;41.80;;;;;;5053136;28;20463;-74
2022/03/14 13:04:42;;;;;;;11.03;10.43;;;22.60;43.30;;;;;;5053270;28;20451;-73
2022/03/14 13:07:08;;;;;;;11.67;11.10;;;22.90;44.40;;;;;;5053270;28;20483;-75
2022/03/14 13:09:35;;;;;;;11.80;11.20;;;23.90;42.80;;;;;;5052774;28;20484;-75
2022/03/14 13:12:05;;;;;;;10.90;10.50;;;24.10;42.20;;;;;;5053019;28;20457;-75
2022/03/14 13:14:32;;;;;;;12.03;11.30;;;24.30;42.00;;;;;;5053090;28;20462;-77
2022/03/14 13:17:00;;;;;;;12.20;11.40;;;23.90;42.00;;;;;;5052711;28;20452;-75
2022/03/14 13:19:29;;;;;;;10.80;10.30;;;22.80;43.40;;;;;;5053100;28;20456;-73
2022/03/14 13:21:56;;;;;;;10.33;9.93;;;20.90;44.70;;;;;;5053055;28;20448;-75
2022/03/14 13:24:24;;;;;;;10.67;9.77;;;19.40;47.00;;;;;;5052901;28;20459;-75
2022/03/14 13:26:51;;;;;;;10.40;9.97;;;19.60;48.20;;;;;;5052879;28;20548;-75
2022/03/14 13:29:19;;;;;;;10.70;10.20;;;19.90;48.80;;;;;;5052738;28;20459;-75
2022/03/14 13:31:48;;;;;;;10.40;9.83;;;20.30;48.60;;;;;;5052726;28;20519;-75
2022/03/14 13:34:16;;;;;;;11.50;10.90;;;20.50;49.30;;;;;;5052700;28;20451;-75
2022/03/14 13:36:51;;;;;;;11.00;10.40;;;20.90;48.60;;;;;;5052584;28;20453;-75
2022/03/14 13:39:19;;;;;;;11.80;10.87;;;20.40;48.00;;;;;;5052747;28;20514;-73
2022/03/14 13:41:47;;;;;;;10.47;9.87;;;19.80;49.90;;;;;;5052491;28;20455;-75
2022/03/14 13:44:15;;;;;;;10.67;9.97;;;18.50;52.00;;;;;;5052446;28;20458;-75
2022/03/14 13:46:46;;;;;;;10.90;10.20;;;18.10;53.50;;;;;;5052320;28;20447;-74
2022/03/14 13:49:21;;;;;;;11.00;10.40;;;18.10;54.20;;;;;;5052364;28;20454;-73
2022/03/14 13:51:51;;;;;;;10.80;10.30;;;18.30;54.00;;;;;;5052536;28;20488;-73
2022/03/14 13:54:22;;;;;;;9.83;9.43;;;18.00;54.20;;;;;;5052521;28;20448;-74
2022/03/14 13:56:50;;;;;;;11.07;10.03;;;18.00;55.20;;;;;;5052314;28;20486;-74
2022/03/14 13:59:28;;;;;;;10.30;9.60;;;18.70;54.70;;;;;;5052303;28;20454;-75
2022/03/14 14:01:57;;;;;;;10.30;9.40;;;18.10;54.90;;;;;;5052096;28;20563;-75
2022/03/14 14:04:26;;;;;;;9.80;9.40;;;17.20;55.60;;;;;;5052113;28;20511;-73
2022/03/14 14:06:56;;;;;;;9.83;9.30;;;16.90;57.20;;;;;;5052344;28;20458;-75
2022/03/14 14:09:31;;;;;;;9.83;9.10;;;16.50;57.80;;;;;;5052175;28;20606;-75
2022/03/14 14:12:05;;;;;;;9.97;9.40;;;16.10;58.40;;;;;;5052433;28;21060;-75
2022/03/14 14:14:33;;;;;;;9.80;9.40;;;15.80;59.80;;;;;;5052392;28;20872;-74
2022/03/14 14:17:18;;;;;;;11.10;10.40;;;15.70;60.20;;;;;;5052274;28;20468;-75
2022/03/14 14:20:12;;;;;;;10.70;10.00;;;15.60;61.20;;;;;;5052415;28;20485;-75
2022/03/14 14:22:42;;;;;;;10.13;9.73;;;15.50;61.10;;;;;;5050370;28;20465;-74
2022/03/14 14:25:26;;;;;;;9.53;9.13;;;15.30;61.50;;;;;;5052323;28;20448;-75
2022/03/14 14:27:55;;;;;;;9.80;9.10;;;15.20;62.20;;;;;;5052280;28;20495;-76
2022/03/14 14:30:30;;;;;;;9.40;8.80;;;15.10;63.10;;;;;;5052224;28;20480;-76
2022/03/14 14:32:58;;;;;;;9.80;9.17;;;15.10;63.50;;;;;;5052024;28;20455;-75
2022/03/14 14:35:26;;;;;;;10.20;9.60;;;15.00;62.30;;;;;;5052231;28;20506;-75
2022/03/14 14:37:54;;;;;;;9.80;9.17;;;15.00;62.60;;;;;;5052185;28;20818;-75
2022/03/14 14:40:21;;;;;;;8.97;8.47;;;15.00;62.70;;;;;;5052116;28;20511;-75
2022/03/14 14:42:47;;;;;;;9.47;8.90;;;15.00;63.70;;;;;;5052203;28;20951;-75
2022/03/14 14:45:15;;;;;;;9.40;8.70;;;15.00;63.20;;;;;;5052047;28;20455;-76
2022/03/14 14:47:41;;;;;;;9.03;8.60;;;15.00;63.90;;;;;;5055782;28;20504;-75
2022/03/14 14:50:09;;;;;;;9.90;9.37;;;15.10;64.00;;;;;;5055784;28;20457;-76
2022/03/14 14:52:36;;;;;;;10.40;9.50;;;15.10;63.60;;;;;;5055790;28;20944;-75
2022/03/14 14:55:05;;;;;;;10.53;10.03;;;14.90;64.10;;;;;;5055850;28;20460;-75
2022/03/14 14:57:32;;;;;;;10.43;9.80;;;14.90;64.40;;;;;;5055617;28;20453;-75
2022/03/14 14:59:59;;;;;;;11.93;10.87;;;14.80;64.70;;;;;;5055547;28;20457;-75
2022/03/14 15:02:27;;;;;;;11.90;11.00;;;14.70;65.10;;;;;;5055439;28;20492;-76
2022/03/14 15:04:54;;;;;;;10.00;9.40;;;14.70;65.80;;;;;;5055678;28;20452;-75
2022/03/14 15:07:20;;;;;;;9.57;8.97;;;14.70;65.70;;;;;;5055347;28;20455;-75
2022/03/14 15:09:47;;;;;;;8.93;8.53;;;14.80;66.00;;;;;;5055162;28;20484;-74
2022/03/14 15:12:15;;;;;;;9.10;8.60;;;14.70;65.40;;;;;;5055267;28;20511;-75
2022/03/14 15:14:42;;;;;;;9.33;8.80;;;14.60;65.70;;;;;;5055510;28;20959;-76
2022/03/14 15:17:09;;;;;;;9.23;8.77;;;14.50;66.10;;;;;;5055175;28;20456;-75
2022/03/14 15:19:35;;;;;;;8.90;8.40;;;14.50;66.40;;;;;;5055146;28;20448;-75
2022/03/14 15:22:02;;;;;;;9.90;9.37;;;14.40;67.20;;;;;;5055124;28;20441;-76
2022/03/14 15:24:29;;;;;;;9.53;8.73;;;14.40;67.20;;;;;;5055239;28;20464;-75
2022/03/14 15:26:56;;;;;;;10.00;9.30;;;14.40;67.60;;;;;;5055000;28;20445;-74
2022/03/14 15:29:24;;;;;;;9.30;8.90;;;14.40;67.30;;;;;;5055040;28;20978;-75
2022/03/14 15:31:51;;;;;;;8.83;8.03;;;14.50;67.40;;;;;;5054803;28;20502;-75
2022/03/14 15:34:18;;;;;;;9.40;8.90;;;14.50;67.50;;;;;;5054926;28;20460;-74
2022/03/14 15:36:45;;;;;;;9.30;8.80;;;14.50;67.60;;;;;;5055126;28;20444;-74
2022/03/14 15:39:12;;;;;;;9.40;8.80;;;14.50;67.30;;;;;;5054912;28;20468;-74
2022/03/14 15:41:39;;;;;;;9.30;8.70;;;14.40;67.20;;;;;;5054804;28;20452;-74
2022/03/14 15:44:06;;;;;;;10.50;9.60;;;14.30;68.40;;;;;;5054853;28;20453;-75
2022/03/14 15:46:34;;;;;;;10.10;9.40;;;14.30;68.80;;;;;;5054779;28;20459;-75
2022/03/14 15:49:01;;;;;;;9.70;9.10;;;14.30;68.80;;;;;;5054715;28;20448;-75
2022/03/14 15:51:29;;;;;;;10.53;9.53;;;14.30;69.30;;;;;;5054613;28;20487;-74
2022/03/14 15:53:56;;;;;;;9.90;9.33;;;14.20;69.00;;;;;;5054543;28;20460;-75
2022/03/14 15:56:24;;;;;;;13.20;9.80;;;14.20;69.90;;;;;;5054479;28;20450;-75
2022/03/14 15:58:51;;;;;;;10.13;9.63;;;14.20;70.00;;;;;;5054614;28;20460;-75
2022/03/14 16:01:18;;;;;;;9.60;8.93;;;14.10;69.80;;;;;;5054202;28;20559;-74
2022/03/14 16:03:47;;;;;;;9.90;9.20;;;14.10;70.00;;;;;;5054361;28;20444;-75
2022/03/14 16:06:15;;;;;;;9.93;9.40;;;14.00;70.00;;;;;;5054188;28;20452;-74
2022/03/14 16:08:41;;;;;;;9.80;9.23;;;14.00;70.00;;;;;;5054210;28;20502;-73
2022/03/14 16:11:08;;;;;;;9.27;8.47;;;13.90;70.50;;;;;;5053796;28;20488;-74
2022/03/14 16:13:35;;;;;;;8.53;8.13;;;13.90;70.20;;;;;;5054208;28;20956;-74
2022/03/14 16:16:02;;;;;;;8.97;8.33;;;13.80;70.60;;;;;;5054156;28;20483;-76
2022/03/14 16:18:29;;;;;;;9.50;8.60;;;13.70;70.60;;;;;;5053998;28;20459;-75
2022/03/14 16:20:57;;;;;;;8.70;8.23;;;13.70;71.20;;;;;;5053972;28;20444;-76
2022/03/14 16:23:24;;;;;;;8.73;8.33;;;13.70;71.70;;;;;;5053912;28;20821;-75
2022/03/14 16:25:50;;;;;;;8.83;8.40;;;13.70;71.60;;;;;;5053982;28;20456;-76
2022/03/14 16:28:18;;;;;;;9.10;8.80;;;13.60;71.70;;;;;;5054081;28;20781;-75
2022/03/14 16:30:44;;;;;;;8.30;7.90;;;13.60;71.60;;;;;;5053809;28;20484;-75
2022/03/14 16:33:11;;;;;;;10.57;9.80;;;13.50;71.80;;;;;;5053881;28;20450;-75
2022/03/14 16:35:38;;;;;;;11.10;10.27;;;13.50;72.30;;;;;;5053815;28;20453;-76
2022/03/14 16:38:06;;;;;;;9.70;9.20;;;13.40;72.50;;;;;;5053768;28;20966;-75
2022/03/14 16:40:33;;;;;;;9.67;8.90;;;13.30;72.70;;;;;;5053766;28;20452;-75
2022/03/14 16:42:59;;;;;;;10.17;9.33;;;13.30;73.40;;;;;;5053632;28;20484;-75
2022/03/14 16:45:26;;;;;;;9.67;8.80;;;13.20;74.00;;;;;;5053541;28;20463;-76
2022/03/14 16:47:53;;;;;;;8.60;8.10;;;13.10;74.70;;;;;;5053516;28;20455;-75
2022/03/14 16:50:21;;;;;;;10.37;9.20;;;13.10;75.10;;;;;;5053384;28;20964;-75
2022/03/14 16:52:48;;;;;;;9.33;8.90;;;13.10;75.60;;;;;;5053260;28;20491;-75
2022/03/14 16:55:16;;;;;;;8.97;8.47;;;13.00;75.60;;;;;;5053387;28;20955;-75
2022/03/14 16:57:43;;;;;;;9.80;9.20;;;13.00;75.80;;;;;;5053250;28;20455;-76
2022/03/14 17:00:13;;;;;;;9.43;9.03;;;13.00;76.00;;;;;;5053388;28;20477;-75
2022/03/14 17:02:40;;;;;;;9.63;9.10;;;12.90;76.60;;;;;;5053254;28;20479;-76
2022/03/14 17:05:08;;;;;;;9.50;8.93;;;12.80;77.10;;;;;;5053229;28;20484;-76
2022/03/14 17:07:35;;;;;;;9.37;8.87;;;12.70;78.10;;;;;;5052976;28;20448;-75
2022/03/14 17:10:03;;;;;;;9.83;9.20;;;12.60;79.00;;;;;;5052506;28;20516;-76
2022/03/14 17:12:31;;;;;;;9.47;8.97;;;12.50;80.30;;;;;;5053006;28;20483;-75
2022/03/14 17:14:57;;;;;;;9.60;9.00;;;12.40;81.70;;;;;;5053193;28;20948;-76
2022/03/14 17:17:26;;;;;;;9.93;9.20;;;12.30;82.60;;;;;;5053010;28;20453;-76
2022/03/14 17:19:54;;;;;;;10.90;9.80;;;12.20;84.70;;;;;;5052974;28;20878;-75
2022/03/14 17:22:21;;;;;;;9.40;8.90;;;12.10;85.20;;;;;;5053188;28;20525;-75
2022/03/14 17:24:48;;;;;;;9.97;9.27;;;12.00;86.10;;;;;;5052975;28;20871;-75
2022/03/14 17:27:15;;;;;;;9.73;8.77;;;11.90;87.70;;;;;;5052932;28;20449;-75
2022/03/14 17:29:43;;;;;;;9.60;9.00;;;11.80;88.90;;;;;;5052792;28;20461;-76
2022/03/14 17:32:11;;;;;;;8.63;8.23;;;11.70;90.10;;;;;;5052795;28;21045;-75
2022/03/14 17:34:38;;;;;;;9.43;8.47;;;11.60;90.80;;;;;;5052773;28;20570;-76
2022/03/14 17:37:04;;;;;;;9.47;9.00;;;11.50;91.20;;;;;;5052815;28;20939;-75
2022/03/14 17:39:31;;;;;;;11.70;10.80;;;11.40;91.60;;;;;;5052614;28;20510;-75
2022/03/14 17:41:58;;;;;;;9.70;9.00;;;11.30;91.70;;;;;;5052673;28;20526;-76
2022/03/14 17:44:25;;;;;;;10.53;9.60;;;11.30;92.20;;;;;;5052495;28;20481;-76
2022/03/14 17:46:53;;;;;;;10.50;9.80;;;11.20;92.40;;;;;;5052667;28;20450;-76
2022/03/14 17:49:20;;;;;;;9.33;8.70;;;11.10;93.00;;;;;;5052652;28;20460;-75
2022/03/14 17:51:47;;;;;;;8.63;8.07;;;11.00;93.40;;;;;;5052608;28;21083;-75
2022/03/14 17:54:14;;;;;;;8.80;8.10;;;10.90;93.90;;;;;;5052453;28;20456;-75
2022/03/14 17:56:41;;;;;;;10.10;9.40;;;10.90;93.90;;;;;;5052444;28;20973;-76
